Weather at Ada Regional Airport

Public forecast

Using degrees Fahrenheit for public forecast. Weather courtesy of forecast.io.

Current aviation weather report (METAR) for Ada Regional Airport

2024/05/29 16:55 (retrieved 10 minutes ago)

KADH 291655Z AUTO 10006KT 10SM SCT120 26/18 A3013 RMK AO2 TSNO

Closest aviation forecast (TAF) to Ada Regional Airport

Closest forecast is Mc Alester Regional Airport, 44.0 nm (81.5 km) E.

2024/05/29 12:22 (retrieved 5 hours ago)

TAF KMLC 291120Z 2912/3012 00000KT P6SM FEW150 BKN250 FM291400 16005KT P6SM VCSH SCT120 BKN250 FM292200 13005KT P6SM SCT040 BKN120